createdAt,value
2023-04-04T00:01:38.562Z,28.00
2023-04-04T00:04:10.134Z,28.00
2023-04-04T00:06:42.699Z,27.90
2023-04-04T00:09:15.263Z,27.90
2023-04-04T00:11:46.217Z,27.90
2023-04-04T00:14:17.491Z,27.90
2023-04-04T00:16:48.489Z,27.90
2023-04-04T00:19:20.064Z,28.00
2023-04-04T00:21:51.402Z,28.00
2023-04-04T00:24:22.467Z,28.10
2023-04-04T00:26:53.684Z,28.10
2023-04-04T00:29:24.724Z,28.10
2023-04-04T00:31:55.887Z,28.20
2023-04-04T00:34:27.477Z,28.20
2023-04-04T00:36:58.353Z,28.20
2023-04-04T00:39:31.435Z,28.30
2023-04-04T00:42:02.026Z,28.30
2023-04-04T00:44:37.212Z,28.40
2023-04-04T00:47:08.165Z,28.40
2023-04-04T00:49:39.114Z,28.50
2023-04-04T00:52:11.910Z,28.60
2023-04-04T00:54:42.742Z,28.70
2023-04-04T00:57:14.094Z,28.80
2023-04-04T00:59:49.414Z,28.80
2023-04-04T01:02:19.370Z,28.80
2023-04-04T01:04:58.116Z,28.80
2023-04-04T01:07:24.188Z,28.90
2023-04-04T01:09:55.308Z,28.90
2023-04-04T01:12:26.860Z,28.90
2023-04-04T01:14:57.585Z,29.00
2023-04-04T01:17:29.654Z,29.10
2023-04-04T01:20:09.516Z,29.20
2023-04-04T01:22:42.723Z,29.20
2023-04-04T01:25:15.987Z,29.30
2023-04-04T01:27:47.484Z,29.40
2023-04-04T01:30:20.790Z,29.50
2023-04-04T01:33:00.090Z,29.60
2023-04-04T01:35:56.453Z,29.70
2023-04-04T01:38:46.505Z,29.70
2023-04-04T01:41:19.998Z,29.80
2023-04-04T01:43:55.648Z,29.90
2023-04-04T01:46:28.833Z,30.00
2023-04-04T01:48:59.378Z,30.10
2023-04-04T01:51:30.649Z,30.10
2023-04-04T01:54:01.877Z,30.20
2023-04-04T01:56:36.187Z,30.30
2023-04-04T01:59:08.334Z,30.40
2023-04-04T02:01:40.280Z,30.50
2023-04-04T02:04:13.048Z,30.60
2023-04-04T02:06:44.160Z,30.60
2023-04-04T02:09:15.486Z,30.70
2023-04-04T02:11:46.771Z,30.70
2023-04-04T02:14:18.094Z,30.80
2023-04-04T02:16:49.263Z,30.90
2023-04-04T02:19:20.801Z,31.00
2023-04-04T02:21:52.030Z,31.10
2023-04-04T02:24:23.077Z,31.20
2023-04-04T02:26:54.178Z,31.30
2023-04-04T02:29:25.348Z,31.30
2023-04-04T02:31:56.479Z,31.40
2023-04-04T02:34:27.972Z,31.50
2023-04-04T02:36:59.390Z,31.60
2023-04-04T02:39:30.476Z,31.70
2023-04-04T02:42:01.748Z,31.70
2023-04-04T02:44:32.851Z,31.90
2023-04-04T02:47:03.990Z,31.90
2023-04-04T02:49:35.188Z,32.00
2023-04-04T02:52:06.197Z,32.10
2023-04-04T02:54:37.922Z,32.30
2023-04-04T02:57:09.163Z,32.30
2023-04-04T02:59:40.218Z,32.40
2023-04-04T03:02:11.295Z,32.50
2023-04-04T03:04:42.031Z,32.60
2023-04-04T03:07:12.763Z,32.70
2023-04-04T03:09:45.255Z,32.80
2023-04-04T03:12:16.591Z,33.00
2023-04-04T03:14:47.481Z,33.10
2023-04-04T03:17:19.362Z,33.10
2023-04-04T03:19:50.437Z,33.30
2023-04-04T03:22:21.328Z,32.80
2023-04-04T03:24:52.360Z,33.50
2023-04-04T03:27:23.454Z,33.50
2023-04-04T03:29:54.651Z,33.60
2023-04-04T03:32:25.782Z,33.60
2023-04-04T03:34:57.872Z,33.60
2023-04-04T03:37:44.004Z,33.70
2023-04-04T03:40:14.182Z,33.80
2023-04-04T03:42:45.319Z,34.00
2023-04-04T03:45:16.402Z,34.00
2023-04-04T03:47:47.672Z,34.10
2023-04-04T03:50:18.888Z,34.10
2023-04-04T03:52:51.264Z,34.10
2023-04-04T03:55:22.269Z,34.20
2023-04-04T03:57:53.872Z,34.30
2023-04-04T04:00:25.328Z,34.40
2023-04-04T04:02:56.412Z,34.50
2023-04-04T04:05:27.605Z,34.60
2023-04-04T04:07:58.658Z,34.70
2023-04-04T04:10:29.732Z,34.70
2023-04-04T04:13:00.870Z,34.80
2023-04-04T04:15:31.994Z,34.90
2023-04-04T04:18:02.935Z,35.00
2023-04-04T04:20:34.242Z,35.10
2023-04-04T04:23:05.275Z,35.10
2023-04-04T04:25:36.641Z,35.10
2023-04-04T04:28:07.499Z,35.10
2023-04-04T04:30:38.905Z,35.20
2023-04-04T04:33:10.176Z,35.20
2023-04-04T04:35:42.263Z,35.30
2023-04-04T04:38:13.286Z,35.40
2023-04-04T04:40:44.391Z,35.40
2023-04-04T04:43:15.403Z,35.40
2023-04-04T04:45:46.518Z,35.40
2023-04-04T04:48:19.288Z,35.40
2023-04-04T04:50:50.805Z,35.40
2023-04-04T04:53:21.911Z,35.40
2023-04-04T04:55:53.568Z,35.40
2023-04-04T04:58:26.348Z,35.40
2023-04-04T05:01:00.762Z,35.50
2023-04-04T05:03:32.122Z,35.50
2023-04-04T05:06:03.420Z,35.50
2023-04-04T05:08:34.534Z,35.60
2023-04-04T05:11:05.848Z,35.80
2023-04-04T05:13:37.376Z,35.80
2023-04-04T05:16:08.600Z,35.90
2023-04-04T05:18:39.609Z,35.90
2023-04-04T05:21:10.627Z,36.00
2023-04-04T05:23:41.690Z,36.00
2023-04-04T05:26:13.072Z,36.00
2023-04-04T05:28:44.140Z,36.00
2023-04-04T05:31:15.303Z,36.00
2023-04-04T05:33:46.757Z,36.10
2023-04-04T05:36:18.148Z,36.20
2023-04-04T05:38:49.243Z,36.30
2023-04-04T05:41:20.370Z,36.40
2023-04-04T05:43:51.533Z,36.30
2023-04-04T05:46:23.614Z,36.30
2023-04-04T05:48:55.727Z,36.30
2023-04-04T05:51:28.039Z,36.30
2023-04-04T05:53:59.396Z,36.40
2023-04-04T05:56:30.531Z,36.60
2023-04-04T05:59:02.146Z,36.70
2023-04-04T06:01:33.345Z,36.80
2023-04-04T06:04:05.644Z,36.90
2023-04-04T06:06:37.421Z,36.80
2023-04-04T06:09:08.898Z,36.90
2023-04-04T06:11:40.467Z,37.00
2023-04-04T06:14:13.208Z,36.90
2023-04-04T06:16:43.854Z,37.00
2023-04-04T06:19:15.415Z,37.00
2023-04-04T06:21:46.582Z,37.20
2023-04-04T06:24:17.891Z,37.20
2023-04-04T06:26:50.360Z,37.20
2023-04-04T06:29:21.412Z,37.10
2023-04-04T06:31:52.641Z,37.20
2023-04-04T06:34:25.069Z,37.30
2023-04-04T06:36:56.336Z,37.30
2023-04-04T06:39:28.366Z,37.40
2023-04-04T06:41:59.522Z,37.40
2023-04-04T06:44:30.445Z,37.30
2023-04-04T06:47:01.697Z,37.30
2023-04-04T06:49:32.864Z,37.30
2023-04-04T06:52:04.208Z,37.30
2023-04-04T06:54:35.773Z,37.20
2023-04-04T06:57:09.283Z,37.10
2023-04-04T06:59:43.931Z,37.10
2023-04-04T07:02:15.264Z,37.10
2023-04-04T07:04:47.741Z,37.00
2023-04-04T07:07:18.626Z,37.00
2023-04-04T07:09:49.938Z,37.00
2023-04-04T07:12:21.039Z,36.90
2023-04-04T07:14:51.969Z,36.90
2023-04-04T07:17:25.093Z,36.80
2023-04-04T07:19:55.430Z,36.80
2023-04-04T07:22:26.623Z,36.80
2023-04-04T07:24:57.885Z,36.70
2023-04-04T07:27:28.882Z,36.70
2023-04-04T07:30:01.171Z,36.70
2023-04-04T07:32:33.449Z,36.70
2023-04-04T07:35:06.232Z,36.70
2023-04-04T07:37:41.651Z,36.70
2023-04-04T07:40:13.954Z,36.70
2023-04-04T07:42:48.843Z,36.70
2023-04-04T07:45:20.232Z,36.60
2023-04-04T07:47:51.300Z,36.60
2023-04-04T07:50:24.544Z,36.60
2023-04-04T07:53:00.366Z,36.60
2023-04-04T07:55:32.926Z,36.70
2023-04-04T07:58:04.063Z,36.70
2023-04-04T08:00:35.292Z,36.80
2023-04-04T08:03:06.310Z,36.70
2023-04-04T08:05:37.669Z,36.70
2023-04-04T08:08:09.351Z,36.80
2023-04-04T08:10:40.847Z,36.70
2023-04-04T08:13:11.763Z,36.60
2023-04-04T08:15:44.058Z,36.70
2023-04-04T08:18:15.220Z,36.70
2023-04-04T08:20:49.432Z,36.80
2023-04-04T08:23:25.893Z,36.70
2023-04-04T08:25:57.245Z,36.70
2023-04-04T08:28:29.522Z,36.80
2023-04-04T08:31:00.856Z,36.70
2023-04-04T08:33:44.494Z,36.80
2023-04-04T08:36:04.639Z,36.70
2023-04-04T08:38:37.304Z,36.70
2023-04-04T08:41:09.026Z,36.70
2023-04-04T08:43:42.723Z,36.60
2023-04-04T08:46:16.526Z,36.60
2023-04-04T08:48:48.690Z,36.70
2023-04-04T08:51:28.842Z,36.70
2023-04-04T08:54:01.761Z,36.70
2023-04-04T08:56:37.602Z,36.70
2023-04-04T08:59:10.410Z,36.60
2023-04-04T09:01:41.685Z,36.60
2023-04-04T09:04:14.091Z,36.50
2023-04-04T09:06:46.495Z,36.60
2023-04-04T09:09:19.435Z,36.60
2023-04-04T09:11:52.407Z,36.60
2023-04-04T09:14:24.679Z,36.70
2023-04-04T09:16:55.665Z,36.70
2023-04-04T09:19:26.969Z,36.70
2023-04-04T09:21:58.207Z,36.70
2023-04-04T09:24:40.958Z,36.70
2023-04-04T09:27:12.782Z,36.70
2023-04-04T09:29:44.548Z,36.70
2023-04-04T09:32:19.456Z,36.70
2023-04-04T09:34:50.554Z,36.80
2023-04-04T09:37:22.047Z,36.70
2023-04-04T09:39:54.166Z,36.70
2023-04-04T09:42:27.712Z,36.70
2023-04-04T09:44:58.852Z,36.80
2023-04-04T09:47:32.235Z,36.70
2023-04-04T09:50:06.864Z,36.70
2023-04-04T09:52:38.068Z,36.60
2023-04-04T09:55:09.949Z,36.60
2023-04-04T09:57:42.317Z,36.50
2023-04-04T10:00:15.398Z,36.50
2023-04-04T10:02:49.023Z,36.50
2023-04-04T10:05:20.977Z,36.40
2023-04-04T10:07:52.036Z,36.40
2023-04-04T10:10:23.784Z,36.40
2023-04-04T10:12:58.098Z,36.40
2023-04-04T10:15:31.715Z,36.30
2023-04-04T10:18:03.451Z,36.30
2023-04-04T10:20:36.271Z,36.30
2023-04-04T10:23:08.015Z,36.20
2023-04-04T10:25:39.042Z,36.20
2023-04-04T10:28:10.012Z,36.20
2023-04-04T10:30:52.650Z,36.20
2023-04-04T10:33:18.268Z,36.10
2023-04-04T10:35:51.473Z,36.10
2023-04-04T10:38:24.760Z,36.00
2023-04-04T10:40:58.089Z,36.00
2023-04-04T10:43:31.308Z,36.00
2023-04-04T10:46:06.452Z,36.00
2023-04-04T10:48:37.913Z,36.00
2023-04-04T10:51:09.968Z,35.90
2023-04-04T10:53:43.167Z,36.00
2023-04-04T10:56:14.581Z,35.90
2023-04-04T10:58:46.732Z,35.90
2023-04-04T11:01:22.357Z,35.80
2023-04-04T11:04:24.559Z,35.80
2023-04-04T11:07:21.682Z,35.80
2023-04-04T11:09:59.218Z,35.80
2023-04-04T11:12:34.769Z,35.70
2023-04-04T11:15:12.865Z,35.70
2023-04-04T11:17:58.833Z,35.70
2023-04-04T11:20:36.474Z,35.60
2023-04-04T11:23:15.742Z,35.60
2023-04-04T11:25:55.184Z,35.60
2023-04-04T11:28:32.005Z,35.50
2023-04-04T11:31:25.046Z,35.50
2023-04-04T11:34:04.296Z,35.40
2023-04-04T11:36:45.589Z,35.50
2023-04-04T11:39:29.359Z,35.40
2023-04-04T11:42:18.456Z,35.40
2023-04-04T11:44:55.193Z,35.30
2023-04-04T11:47:29.344Z,35.30
2023-04-04T11:50:02.560Z,35.30
2023-04-04T11:52:37.858Z,35.20
2023-04-04T11:55:20.171Z,35.20
2023-04-04T11:57:52.692Z,35.20
2023-04-04T12:00:38.368Z,35.10
2023-04-04T12:03:12.567Z,35.10
2023-04-04T12:05:45.807Z,35.10
2023-04-04T12:08:19.107Z,35.10
2023-04-04T12:10:50.642Z,35.00
2023-04-04T12:13:21.796Z,35.00
2023-04-04T12:15:52.847Z,35.00
2023-04-04T12:18:28.681Z,35.00
2023-04-04T12:20:59.844Z,35.00
2023-04-04T12:23:32.208Z,34.90
2023-04-04T12:26:05.271Z,34.90
2023-04-04T12:28:37.193Z,34.90
2023-04-04T12:31:09.551Z,34.90
2023-04-04T12:33:43.352Z,34.90
2023-04-04T12:36:14.555Z,34.90
2023-04-04T12:38:59.867Z,34.80
2023-04-04T12:41:31.155Z,34.80
2023-04-04T12:44:07.277Z,34.80
2023-04-04T12:46:44.128Z,34.70
2023-04-04T12:49:20.607Z,34.70
2023-04-04T12:51:54.819Z,34.70
2023-04-04T12:54:35.086Z,34.60
2023-04-04T12:57:10.073Z,34.60
2023-04-04T12:59:41.136Z,34.60
2023-04-04T13:02:14.967Z,34.50
2023-04-04T13:04:50.833Z,34.50
2023-04-04T13:07:26.602Z,34.50
2023-04-04T13:10:06.675Z,34.40
2023-04-04T13:12:57.975Z,34.40
2023-04-04T13:15:53.940Z,34.50
2023-04-04T13:18:32.041Z,34.40
2023-04-04T13:21:06.968Z,34.40
2023-04-04T13:23:40.531Z,34.30
2023-04-04T13:26:13.268Z,34.30
2023-04-04T13:28:44.457Z,34.30
2023-04-04T13:31:19.616Z,34.30
2023-04-04T13:33:50.930Z,34.20
2023-04-04T13:36:25.955Z,34.20
2023-04-04T13:38:57.966Z,34.20
2023-04-04T13:41:29.054Z,34.20
2023-04-04T13:43:59.794Z,34.20
2023-04-04T13:46:30.598Z,34.10
2023-04-04T13:49:02.964Z,34.10
2023-04-04T13:51:34.139Z,34.10
2023-04-04T13:54:04.892Z,34.10
2023-04-04T13:56:35.839Z,34.00
2023-04-04T13:59:08.698Z,34.00
2023-04-04T14:01:38.883Z,34.00
2023-04-04T14:04:22.651Z,34.00
2023-04-04T14:06:42.033Z,34.00
2023-04-04T14:09:13.022Z,33.90
2023-04-04T14:11:43.850Z,33.90
2023-04-04T14:14:14.579Z,33.90
2023-04-04T14:16:45.354Z,33.80
2023-04-04T14:19:16.071Z,33.70
2023-04-04T14:21:49.973Z,33.70
2023-04-04T14:24:23.930Z,33.70
2023-04-04T14:26:58.445Z,33.60
2023-04-04T14:29:29.353Z,33.60
2023-04-04T14:32:00.531Z,33.60
2023-04-04T14:34:33.974Z,33.60
2023-04-04T14:37:04.510Z,33.60
2023-04-04T14:39:35.907Z,33.60
2023-04-04T14:42:07.189Z,33.60
2023-04-04T14:44:38.567Z,33.50
2023-04-04T14:47:09.803Z,33.50
2023-04-04T14:49:43.195Z,33.50
2023-04-04T14:52:13.195Z,33.40
2023-04-04T14:54:44.105Z,33.40
2023-04-04T14:57:15.316Z,33.30
2023-04-04T14:59:46.658Z,33.30
2023-04-04T15:02:17.880Z,33.30
2023-04-04T15:04:49.097Z,33.20
2023-04-04T15:07:20.666Z,33.20
2023-04-04T15:09:51.815Z,33.10
2023-04-04T15:12:22.955Z,33.10
2023-04-04T15:14:54.182Z,33.10
2023-04-04T15:17:27.689Z,33.10
2023-04-04T15:20:02.029Z,33.10
2023-04-04T15:22:36.168Z,33.00
2023-04-04T15:25:08.185Z,33.00
2023-04-04T15:27:40.614Z,33.00
2023-04-04T15:30:12.648Z,33.00
2023-04-04T15:32:46.435Z,32.90
2023-04-04T15:35:29.660Z,32.90
2023-04-04T15:38:00.847Z,32.90
2023-04-04T15:40:32.144Z,32.90
2023-04-04T15:43:04.642Z,32.90
2023-04-04T15:45:37.837Z,32.90
2023-04-04T15:48:08.740Z,32.80
2023-04-04T15:50:39.746Z,32.80
2023-04-04T15:53:11.742Z,32.80
2023-04-04T15:55:45.391Z,32.80
2023-04-04T15:58:16.651Z,32.80
2023-04-04T16:00:50.122Z,32.80
2023-04-04T16:03:21.831Z,32.70
2023-04-04T16:05:56.324Z,32.80
2023-04-04T16:08:27.516Z,32.70
2023-04-04T16:11:00.318Z,32.70
2023-04-04T16:13:31.554Z,32.70
2023-04-04T16:16:02.953Z,32.60
2023-04-04T16:18:34.156Z,32.60
2023-04-04T16:21:06.572Z,32.70
2023-04-04T16:24:12.789Z,32.60
2023-04-04T16:26:24.792Z,32.60
2023-04-04T16:28:56.632Z,32.60
2023-04-04T16:31:27.940Z,32.60
2023-04-04T16:34:00.801Z,32.60
2023-04-04T16:36:33.265Z,32.50
2023-04-04T16:39:04.457Z,32.50
2023-04-04T16:41:36.458Z,32.50
2023-04-04T16:44:08.684Z,32.40
2023-04-04T16:46:39.938Z,32.40
2023-04-04T16:49:11.165Z,32.30
2023-04-04T16:51:43.448Z,32.20
2023-04-04T16:54:15.143Z,32.20
2023-04-04T16:56:46.339Z,32.10
2023-04-04T16:59:19.316Z,32.10
2023-04-04T17:02:02.842Z,32.00
2023-04-04T17:04:33.989Z,32.00
2023-04-04T17:07:05.652Z,32.00
2023-04-04T17:09:37.402Z,31.90
2023-04-04T17:12:09.364Z,31.90
2023-04-04T17:14:41.296Z,31.80
2023-04-04T17:17:12.800Z,31.80
2023-04-04T17:19:44.132Z,31.80
2023-04-04T17:22:15.862Z,31.80
2023-04-04T17:24:47.499Z,31.70
2023-04-04T17:27:19.035Z,31.70
2023-04-04T17:29:50.304Z,31.70
2023-04-04T17:32:21.793Z,31.70
2023-04-04T17:34:53.004Z,31.70
2023-04-04T17:37:24.423Z,31.70
2023-04-04T17:39:56.706Z,31.60
2023-04-04T17:42:28.516Z,31.60
2023-04-04T17:44:59.872Z,31.60
2023-04-04T17:47:31.332Z,31.60
2023-04-04T17:50:02.741Z,31.60
2023-04-04T17:52:34.518Z,31.50
2023-04-04T17:57:42.460Z,31.40
2023-04-04T18:00:14.685Z,31.30
2023-04-04T18:02:46.205Z,31.10
2023-04-04T18:05:18.025Z,31.00
2023-04-04T18:07:49.185Z,30.90
2023-04-04T18:10:20.844Z,30.80
2023-04-04T18:12:52.178Z,30.70
2023-04-04T18:15:23.626Z,30.70
2023-04-04T18:17:55.435Z,30.60
2023-04-04T18:20:34.568Z,30.60
2023-04-04T18:23:01.350Z,30.60
2023-04-04T18:25:36.135Z,30.60
2023-04-04T18:28:07.270Z,30.70
2023-04-04T18:30:38.999Z,30.70
2023-04-04T18:33:10.936Z,30.80
2023-04-04T18:35:42.213Z,30.80
2023-04-04T18:38:13.411Z,30.80
2023-04-04T18:40:45.890Z,30.80
2023-04-04T18:43:17.273Z,30.80
2023-04-04T18:45:49.128Z,30.80
2023-04-04T18:48:20.236Z,30.80
2023-04-04T18:50:51.624Z,30.80
2023-04-04T18:53:22.894Z,30.80
2023-04-04T18:55:57.293Z,30.80
2023-04-04T18:58:28.901Z,30.80
2023-04-04T19:01:00.418Z,30.80
2023-04-04T19:03:42.776Z,30.80
2023-04-04T19:06:17.912Z,30.80
2023-04-04T19:08:50.186Z,30.80
2023-04-04T19:11:22.712Z,30.80
2023-04-04T19:13:55.470Z,30.70
2023-04-04T19:16:26.696Z,30.70
2023-04-04T19:18:57.870Z,30.70
2023-04-04T19:21:29.206Z,30.60
2023-04-04T19:24:00.357Z,30.50
2023-04-04T19:26:32.797Z,30.50
2023-04-04T19:29:06.603Z,30.40
2023-04-04T19:31:37.857Z,30.30
2023-04-04T19:34:10.255Z,30.30
2023-04-04T19:36:41.409Z,30.30
2023-04-04T19:39:14.626Z,30.20
2023-04-04T19:41:46.239Z,30.20
2023-04-04T19:44:23.781Z,30.20
2023-04-04T19:47:03.280Z,30.10
2023-04-04T19:49:39.424Z,30.10
2023-04-04T19:52:10.558Z,30.10
2023-04-04T19:54:43.085Z,30.10
2023-04-04T19:57:20.051Z,30.00
2023-04-04T20:00:03.888Z,30.00
2023-04-04T20:02:37.453Z,30.00
2023-04-04T20:05:28.825Z,29.90
2023-04-04T20:08:00.067Z,29.90
2023-04-04T20:10:44.365Z,29.90
2023-04-04T20:13:15.945Z,29.90
2023-04-04T20:15:49.427Z,29.90
2023-04-04T20:18:25.417Z,29.80
2023-04-04T20:21:13.421Z,29.80
2023-04-04T20:23:53.644Z,29.80
2023-04-04T20:26:42.539Z,29.80
2023-04-04T20:29:19.110Z,29.80
2023-04-04T20:31:53.414Z,29.80
2023-04-04T20:37:26.123Z,29.60
2023-04-04T20:40:14.342Z,29.50
2023-04-04T20:42:45.564Z,29.40
2023-04-04T20:45:31.185Z,29.40
2023-04-04T20:48:05.833Z,29.40
2023-04-04T20:50:41.872Z,29.30
2023-04-04T20:53:15.539Z,29.30
2023-04-04T20:55:46.742Z,29.30
2023-04-04T20:58:31.945Z,29.30
2023-04-04T21:01:03.524Z,29.30
2023-04-04T21:03:37.383Z,29.30
2023-04-04T21:06:16.723Z,29.30
2023-04-04T21:08:53.179Z,29.30
2023-04-04T21:11:31.521Z,29.30
2023-04-04T21:14:02.674Z,29.30
2023-04-04T21:16:33.818Z,29.30
2023-04-04T21:19:05.121Z,29.30
2023-04-04T21:21:37.708Z,29.30
2023-04-04T21:24:11.715Z,29.30
2023-04-04T21:26:44.908Z,29.30
2023-04-04T21:29:30.749Z,29.30
2023-04-04T21:32:01.876Z,29.30
2023-04-04T21:34:33.534Z,29.30
2023-04-04T21:37:05.376Z,29.30
2023-04-04T21:39:38.886Z,29.20
2023-04-04T21:42:10.004Z,29.20
2023-04-04T21:44:41.224Z,29.20
2023-04-04T21:47:13.886Z,29.20
2023-04-04T21:49:44.943Z,29.20
2023-04-04T21:52:16.075Z,29.10
2023-04-04T21:54:47.231Z,29.10
2023-04-04T21:57:18.491Z,29.10
2023-04-04T21:59:50.248Z,29.10
2023-04-04T22:02:21.479Z,29.00
2023-04-04T22:04:52.667Z,29.00
2023-04-04T22:07:23.845Z,29.00
2023-04-04T22:09:55.942Z,29.00
2023-04-04T22:12:27.436Z,29.00
2023-04-04T22:15:19.173Z,29.00
2023-04-04T22:17:51.580Z,28.90
2023-04-04T22:20:23.832Z,28.90
2023-04-04T22:22:55.005Z,28.90
2023-04-04T22:25:26.417Z,28.90
2023-04-04T22:27:57.810Z,28.90
2023-04-04T22:30:29.138Z,28.90
2023-04-04T22:33:04.722Z,28.90
2023-04-04T22:35:36.430Z,28.90
2023-04-04T22:38:07.612Z,28.90
2023-04-04T22:40:38.916Z,28.90
2023-04-04T22:43:11.345Z,28.90
2023-04-04T22:45:42.516Z,28.90
2023-04-04T22:48:13.727Z,28.90
2023-04-04T22:50:45.941Z,28.90
2023-04-04T22:53:17.095Z,28.90
2023-04-04T22:55:48.288Z,28.80
2023-04-04T22:58:19.441Z,28.80
2023-04-04T23:00:50.558Z,28.70
2023-04-04T23:03:22.149Z,28.70
2023-04-04T23:05:53.258Z,28.60
2023-04-04T23:08:24.418Z,28.60
2023-04-04T23:10:55.689Z,28.50
2023-04-04T23:13:27.009Z,28.50
2023-04-04T23:15:58.188Z,28.40
2023-04-04T23:18:29.414Z,28.40
2023-04-04T23:21:00.522Z,28.40
2023-04-04T23:23:31.672Z,28.40
2023-04-04T23:26:02.798Z,28.40
2023-04-04T23:28:33.959Z,28.40
2023-04-04T23:31:05.205Z,28.30
2023-04-04T23:33:36.349Z,28.30
2023-04-04T23:36:08.165Z,28.30
2023-04-04T23:38:40.574Z,28.20
2023-04-04T23:41:12.186Z,28.20
2023-04-04T23:43:44.302Z,28.20
2023-04-04T23:46:15.514Z,28.20
2023-04-04T23:48:46.765Z,28.20
2023-04-04T23:51:18.302Z,28.20
2023-04-04T23:53:49.462Z,28.20
2023-04-04T23:56:20.604Z,28.20
2023-04-04T23:58:51.755Z,28.20
